Weather at JL Bar Ranch

Public forecast

Using degrees Fahrenheit for public forecast. Weather courtesy of forecast.io.

Closest aviation weather report (METAR) to JL Bar Ranch

Closest report is Sonora Municipal Airport, 10.6 nm (19.7 km) W. Retrieved 2022/07/01 03:35 UTC (17 minutes ago):

KSOA 010335Z AUTO 00000KT 10SM CLR 27/13 A3003 RMK AO2

Closest aviation forecast (TAF) to JL Bar Ranch

Closest forecast is Sonora Municipal Airport, 10.6 nm (19.7 km) W. Retrieved 2022-07-01 00:22 UTC (4 hours ago):

TAF KSOA 302320Z 0100/0124 16004KT P6SM FEW080